sensor_id;sensor_type;location;lat;lon;timestamp;temperature;humidity
16140;DHT22;8175;49.326;12.690;2022-12-10T00:00:19;-0.80;99.90
16140;DHT22;8175;49.326;12.690;2022-12-10T00:02:45;-0.90;99.90
16140;DHT22;8175;49.326;12.690;2022-12-10T00:05:11;-1.00;99.90
16140;DHT22;8175;49.326;12.690;2022-12-10T00:07:36;-1.00;99.90
16140;DHT22;8175;49.326;12.690;2022-12-10T00:10:02;-1.00;99.90
16140;DHT22;8175;49.326;12.690;2022-12-10T00:12:27;-1.10;99.90
16140;DHT22;8175;49.326;12.690;2022-12-10T00:14:53;-1.10;99.90
16140;DHT22;8175;49.326;12.690;2022-12-10T00:17:19;-1.10;99.90
16140;DHT22;8175;49.326;12.690;2022-12-10T00:19:44;-1.10;99.90
16140;DHT22;8175;49.326;12.690;2022-12-10T00:22:10;-1.10;99.90
16140;DHT22;8175;49.326;12.690;2022-12-10T00:24:36;-1.00;99.90
16140;DHT22;8175;49.326;12.690;2022-12-10T00:27:01;-1.00;99.90
16140;DHT22;8175;49.326;12.690;2022-12-10T00:29:27;-1.00;99.90
16140;DHT22;8175;49.326;12.690;2022-12-10T00:31:53;-1.00;99.90
16140;DHT22;8175;49.326;12.690;2022-12-10T00:34:18;-1.00;99.90
16140;DHT22;8175;49.326;12.690;2022-12-10T00:36:46;-0.90;99.90
16140;DHT22;8175;49.326;12.690;2022-12-10T00:39:16;-0.90;99.90
16140;DHT22;8175;49.326;12.690;2022-12-10T00:41:42;-0.90;99.90
16140;DHT22;8175;49.326;12.690;2022-12-10T00:44:08;-0.80;99.90
16140;DHT22;8175;49.326;12.690;2022-12-10T00:46:34;-0.80;99.90
16140;DHT22;8175;49.326;12.690;2022-12-10T00:48:59;-0.70;99.90
16140;DHT22;8175;49.326;12.690;2022-12-10T00:51:26;-0.80;99.90
16140;DHT22;8175;49.326;12.690;2022-12-10T00:53:54;-0.80;99.90
16140;DHT22;8175;49.326;12.690;2022-12-10T00:56:23;-0.80;99.90
16140;DHT22;8175;49.326;12.690;2022-12-10T00:58:49;-0.80;99.90
16140;DHT22;8175;49.326;12.690;2022-12-10T01:01:40;-0.70;99.90
16140;DHT22;8175;49.326;12.690;2022-12-10T01:04:08;-0.70;99.90
16140;DHT22;8175;49.326;12.690;2022-12-10T01:06:40;-0.70;99.90
16140;DHT22;8175;49.326;12.690;2022-12-10T01:09:08;-0.80;99.90
16140;DHT22;8175;49.326;12.690;2022-12-10T01:11:37;-0.80;99.90
16140;DHT22;8175;49.326;12.690;2022-12-10T01:14:03;-0.80;99.90
16140;DHT22;8175;49.326;12.690;2022-12-10T01:16:29;-0.80;99.90
16140;DHT22;8175;49.326;12.690;2022-12-10T01:18:58;-0.80;99.90
16140;DHT22;8175;49.326;12.690;2022-12-10T01:21:26;-0.80;99.90
16140;DHT22;8175;49.326;12.690;2022-12-10T01:23:53;-0.80;99.90
16140;DHT22;8175;49.326;12.690;2022-12-10T01:26:27;-0.80;99.90
16140;DHT22;8175;49.326;12.690;2022-12-10T01:28:55;-0.80;99.90
16140;DHT22;8175;49.326;12.690;2022-12-10T01:31:29;-0.70;99.90
16140;DHT22;8175;49.326;12.690;2022-12-10T01:33:56;-0.70;99.90
16140;DHT22;8175;49.326;12.690;2022-12-10T01:36:26;-0.70;99.90
16140;DHT22;8175;49.326;12.690;2022-12-10T01:38:52;-0.70;99.90
16140;DHT22;8175;49.326;12.690;2022-12-10T01:41:24;-0.70;99.90
16140;DHT22;8175;49.326;12.690;2022-12-10T01:46:32;-0.80;99.90
16140;DHT22;8175;49.326;12.690;2022-12-10T01:48:59;-0.90;99.90
16140;DHT22;8175;49.326;12.690;2022-12-10T01:51:28;-0.90;99.90
16140;DHT22;8175;49.326;12.690;2022-12-10T01:53:54;-1.00;99.90
16140;DHT22;8175;49.326;12.690;2022-12-10T01:56:21;-1.10;99.90
16140;DHT22;8175;49.326;12.690;2022-12-10T01:58:49;-1.10;99.90
16140;DHT22;8175;49.326;12.690;2022-12-10T02:01:40;-1.10;99.90
16140;DHT22;8175;49.326;12.690;2022-12-10T02:04:26;-1.10;99.90
16140;DHT22;8175;49.326;12.690;2022-12-10T02:12:28;-1.20;99.90
16140;DHT22;8175;49.326;12.690;2022-12-10T02:15:13;-1.20;99.90
16140;DHT22;8175;49.326;12.690;2022-12-10T02:18:05;-1.10;99.90
16140;DHT22;8175;49.326;12.690;2022-12-10T02:20:35;-1.10;99.90
16140;DHT22;8175;49.326;12.690;2022-12-10T02:23:12;-1.20;99.90
16140;DHT22;8175;49.326;12.690;2022-12-10T02:25:59;-1.20;99.90
16140;DHT22;8175;49.326;12.690;2022-12-10T02:31:04;-1.00;99.90
16140;DHT22;8175;49.326;12.690;2022-12-10T02:33:31;-0.90;99.90
16140;DHT22;8175;49.326;12.690;2022-12-10T02:35:58;-0.80;99.90
16140;DHT22;8175;49.326;12.690;2022-12-10T02:38:31;-0.70;99.90
16140;DHT22;8175;49.326;12.690;2022-12-10T02:41:02;-0.60;99.90
16140;DHT22;8175;49.326;12.690;2022-12-10T02:43:30;-0.50;99.90
16140;DHT22;8175;49.326;12.690;2022-12-10T02:45:58;-0.60;99.90
16140;DHT22;8175;49.326;12.690;2022-12-10T02:48:25;-0.60;99.90
16140;DHT22;8175;49.326;12.690;2022-12-10T02:50:51;-0.70;99.90
16140;DHT22;8175;49.326;12.690;2022-12-10T08:26:32;-0.30;99.90
16140;DHT22;8175;49.326;12.690;2022-12-10T08:28:58;-0.30;99.90
16140;DHT22;8175;49.326;12.690;2022-12-10T08:31:25;-0.20;99.90
16140;DHT22;8175;49.326;12.690;2022-12-10T08:33:51;-0.10;99.90
16140;DHT22;8175;49.326;12.690;2022-12-10T08:36:18;0.00;99.90
16140;DHT22;8175;49.326;12.690;2022-12-10T08:38:45;0.10;99.90
16140;DHT22;8175;49.326;12.690;2022-12-10T08:41:21;0.20;99.90
16140;DHT22;8175;49.326;12.690;2022-12-10T08:43:47;0.10;99.90
16140;DHT22;8175;49.326;12.690;2022-12-10T09:17:08;1.00;99.90
16140;DHT22;8175;49.326;12.690;2022-12-10T09:19:34;1.10;99.90
16140;DHT22;8175;49.326;12.690;2022-12-10T09:21:59;1.40;99.90
16140;DHT22;8175;49.326;12.690;2022-12-10T11:16:27;1.90;99.90
16140;DHT22;8175;49.326;12.690;2022-12-10T11:19:01;1.70;99.90
16140;DHT22;8175;49.326;12.690;2022-12-10T11:21:32;1.70;99.90
16140;DHT22;8175;49.326;12.690;2022-12-10T11:23:59;1.90;99.90
16140;DHT22;8175;49.326;12.690;2022-12-10T11:27:01;2.20;99.90
16140;DHT22;8175;49.326;12.690;2022-12-10T11:37:32;2.00;99.90
16140;DHT22;8175;49.326;12.690;2022-12-10T11:45:52;1.70;99.90
16140;DHT22;8175;49.326;12.690;2022-12-10T11:51:08;2.20;99.90
16140;DHT22;8175;49.326;12.690;2022-12-10T12:05:36;2.00;99.90
16140;DHT22;8175;49.326;12.690;2022-12-10T12:13:48;2.30;99.90
16140;DHT22;8175;49.326;12.690;2022-12-10T12:16:29;2.20;99.90
16140;DHT22;8175;49.326;12.690;2022-12-10T12:19:10;2.10;99.90
16140;DHT22;8175;49.326;12.690;2022-12-10T12:21:38;1.90;99.90
16140;DHT22;8175;49.326;12.690;2022-12-10T12:24:20;1.80;99.90
16140;DHT22;8175;49.326;12.690;2022-12-10T12:26:57;1.70;99.90
16140;DHT22;8175;49.326;12.690;2022-12-10T12:29:28;1.70;99.90
16140;DHT22;8175;49.326;12.690;2022-12-10T12:32:18;1.70;99.90
16140;DHT22;8175;49.326;12.690;2022-12-10T12:34:59;1.60;99.90
16140;DHT22;8175;49.326;12.690;2022-12-10T12:37:49;1.60;99.90
16140;DHT22;8175;49.326;12.690;2022-12-10T12:40:34;1.60;99.90
16140;DHT22;8175;49.326;12.690;2022-12-10T12:43:25;1.50;99.90
16140;DHT22;8175;49.326;12.690;2022-12-10T12:45:54;1.30;99.90
